Hlavní strana
METAR-TAF:

METAR-TAF

Letiště :

Tanabe, Japonsko

zeměpisná šířka: 33-44N, zeměpisná délka: 135-23E, výška: 105 m

Aktuální stav počasí

Zpráva byla vytvořena před 1 hodinou a 1 minutami, v 02:00 UTC
Západoseverozápadní vítr 5 kt, proměnlivý mezi západním a severoseverozápadním
Teplota 12°C
Vlhkost vzduchu 47%
Tlak 1029 hPa
Viditelnost 10 km a více
Skoro jasno ve výšce 3000 ft
Polojasno ve výšce 5000 ft
Oblačno až skoro zataženo ve výšce 15000 ft

METAR: RJBD 200200Z 30005KT 260V340 9999 FEW030 SCT050 BKN150 12/01 Q1029

Čas: 12:01 (03:01 UTC)


TAF: chybějící

Stav a předpovědi počasí z více než 4 000 letišť (zprávy METAR a TAF).

Červené a žluté tečky na mapě představují dostupné meteorologické stanice.

Když kurzor umístíte na tečku, zobrazí se název stanice.

Pak kliknutím zobrazíte stav a předpověď počasí.

Chcete-li změnit mapu, kliknutím na zelené tlačítko se znaménkem +mapu přiblížíte, kliknutím na zelené tlačítko se znaménkem – mapu oddálíte a kliknutím na zelené šipky přejdete na sousední mapy.


METAR-TAF: